sensor_id;sensor_type;location;lat;lon;timestamp;pressure;altitude;pressure_sealevel;temperature;humidity
17383;BME280;8809;51.892;8.384;2023-11-19T00:00:07;99909.09;;;10.85;100.00
17383;BME280;8809;51.892;8.384;2023-11-19T00:02:42;99907.03;;;10.75;100.00
17383;BME280;8809;51.892;8.384;2023-11-19T00:05:10;99899.16;;;10.73;100.00
17383;BME280;8809;51.892;8.384;2023-11-19T00:07:38;99902.97;;;10.85;100.00
17383;BME280;8809;51.892;8.384;2023-11-19T00:10:08;99894.22;;;10.83;100.00
17383;BME280;8809;51.892;8.384;2023-11-19T00:12:35;99891.66;;;10.84;100.00
17383;BME280;8809;51.892;8.384;2023-11-19T00:15:03;99885.72;;;10.90;100.00
17383;BME280;8809;51.892;8.384;2023-11-19T00:17:30;99899.88;;;10.98;100.00
17383;BME280;8809;51.892;8.384;2023-11-19T00:19:57;99898.34;;;11.06;100.00
17383;BME280;8809;51.892;8.384;2023-11-19T00:22:26;99882.69;;;11.06;100.00
17383;BME280;8809;51.892;8.384;2023-11-19T00:24:53;99887.22;;;11.11;100.00
17383;BME280;8809;51.892;8.384;2023-11-19T00:27:20;99887.47;;;11.21;100.00
17383;BME280;8809;51.892;8.384;2023-11-19T00:29:50;99871.06;;;11.26;100.00
17383;BME280;8809;51.892;8.384;2023-11-19T00:32:17;99871.50;;;11.41;100.00
17383;BME280;8809;51.892;8.384;2023-11-19T00:34:44;99872.09;;;11.31;100.00
17383;BME280;8809;51.892;8.384;2023-11-19T00:37:13;99882.69;;;11.37;100.00
17383;BME280;8809;51.892;8.384;2023-11-19T00:39:42;99870.66;;;11.42;100.00
17383;BME280;8809;51.892;8.384;2023-11-19T00:42:11;99858.44;;;11.41;100.00
17383;BME280;8809;51.892;8.384;2023-11-19T00:44:39;99862.13;;;11.49;100.00
17383;BME280;8809;51.892;8.384;2023-11-19T00:47:07;99856.75;;;11.43;100.00
17383;BME280;8809;51.892;8.384;2023-11-19T00:49:34;99855.88;;;11.43;100.00
17383;BME280;8809;51.892;8.384;2023-11-19T00:52:01;99850.50;;;11.38;100.00
17383;BME280;8809;51.892;8.384;2023-11-19T00:54:29;99851.94;;;11.27;100.00
17383;BME280;8809;51.892;8.384;2023-11-19T00:56:57;99854.91;;;11.39;100.00
17383;BME280;8809;51.892;8.384;2023-11-19T00:59:24;99842.34;;;10.93;100.00
17383;BME280;8809;51.892;8.384;2023-11-19T01:01:51;99842.25;;;10.90;100.00
17383;BME280;8809;51.892;8.384;2023-11-19T01:04:18;99833.44;;;10.87;100.00
17383;BME280;8809;51.892;8.384;2023-11-19T01:06:46;99835.19;;;10.88;100.00
17383;BME280;8809;51.892;8.384;2023-11-19T01:09:13;99823.81;;;10.84;100.00
17383;BME280;8809;51.892;8.384;2023-11-19T01:11:41;99822.09;;;10.85;100.00
17383;BME280;8809;51.892;8.384;2023-11-19T01:14:09;99828.59;;;11.00;100.00
17383;BME280;8809;51.892;8.384;2023-11-19T01:16:36;99829.41;;;10.98;100.00
17383;BME280;8809;51.892;8.384;2023-11-19T01:19:03;99818.09;;;11.30;100.00
17383;BME280;8809;51.892;8.384;2023-11-19T01:21:30;99829.53;;;11.35;100.00
17383;BME280;8809;51.892;8.384;2023-11-19T01:23:58;99822.63;;;11.37;100.00
17383;BME280;8809;51.892;8.384;2023-11-19T01:26:25;99828.03;;;11.45;100.00
17383;BME280;8809;51.892;8.384;2023-11-19T01:28:52;99830.84;;;11.51;100.00
17383;BME280;8809;51.892;8.384;2023-11-19T01:31:20;99830.19;;;11.60;100.00
17383;BME280;8809;51.892;8.384;2023-11-19T01:33:47;99820.03;;;11.72;100.00
17383;BME280;8809;51.892;8.384;2023-11-19T01:36:15;99818.03;;;11.62;100.00
17383;BME280;8809;51.892;8.384;2023-11-19T01:38:42;99831.00;;;11.59;100.00
17383;BME280;8809;51.892;8.384;2023-11-19T01:41:10;99809.09;;;11.52;100.00
17383;BME280;8809;51.892;8.384;2023-11-19T01:43:38;99804.75;;;11.54;100.00
17383;BME280;8809;51.892;8.384;2023-11-19T01:46:07;99813.72;;;11.64;100.00
17383;BME280;8809;51.892;8.384;2023-11-19T01:48:39;99803.31;;;11.65;100.00
17383;BME280;8809;51.892;8.384;2023-11-19T01:51:08;99787.78;;;11.71;100.00
17383;BME280;8809;51.892;8.384;2023-11-19T01:53:37;99790.28;;;11.67;100.00
17383;BME280;8809;51.892;8.384;2023-11-19T01:56:07;99783.44;;;11.72;100.00
17383;BME280;8809;51.892;8.384;2023-11-19T01:58:35;99777.22;;;11.67;100.00
17383;BME280;8809;51.892;8.384;2023-11-19T02:01:03;99773.69;;;11.65;100.00
17383;BME280;8809;51.892;8.384;2023-11-19T02:03:31;99768.75;;;11.75;100.00
17383;BME280;8809;51.892;8.384;2023-11-19T02:06:00;99766.16;;;11.77;100.00
17383;BME280;8809;51.892;8.384;2023-11-19T02:08:27;99769.00;;;11.86;100.00
17383;BME280;8809;51.892;8.384;2023-11-19T02:10:55;99749.81;;;11.85;100.00
17383;BME280;8809;51.892;8.384;2023-11-19T02:13:22;99746.13;;;11.76;100.00
17383;BME280;8809;51.892;8.384;2023-11-19T02:15:50;99746.88;;;11.72;100.00
17383;BME280;8809;51.892;8.384;2023-11-19T02:18:18;99747.41;;;11.95;100.00
17383;BME280;8809;51.892;8.384;2023-11-19T02:20:46;99749.00;;;11.88;100.00
17383;BME280;8809;51.892;8.384;2023-11-19T02:23:15;99748.28;;;11.95;100.00
17383;BME280;8809;51.892;8.384;2023-11-19T02:25:47;99747.59;;;12.04;100.00
17383;BME280;8809;51.892;8.384;2023-11-19T02:28:17;99732.88;;;12.07;100.00
17383;BME280;8809;51.892;8.384;2023-11-19T02:30:45;99725.78;;;12.02;100.00
17383;BME280;8809;51.892;8.384;2023-11-19T02:33:12;99731.88;;;12.02;100.00
17383;BME280;8809;51.892;8.384;2023-11-19T02:35:40;99727.72;;;12.12;100.00
17383;BME280;8809;51.892;8.384;2023-11-19T02:38:08;99715.63;;;12.15;100.00
17383;BME280;8809;51.892;8.384;2023-11-19T02:40:35;99712.94;;;12.12;100.00
17383;BME280;8809;51.892;8.384;2023-11-19T02:43:02;99719.88;;;12.12;100.00
17383;BME280;8809;51.892;8.384;2023-11-19T02:45:32;99732.22;;;12.17;100.00
17383;BME280;8809;51.892;8.384;2023-11-19T02:47:59;99723.66;;;12.24;100.00
17383;BME280;8809;51.892;8.384;2023-11-19T02:50:28;99729.16;;;12.37;100.00
17383;BME280;8809;51.892;8.384;2023-11-19T02:52:57;99730.09;;;12.42;100.00
17383;BME280;8809;51.892;8.384;2023-11-19T02:55:25;99718.75;;;12.40;100.00
17383;BME280;8809;51.892;8.384;2023-11-19T02:57:53;99729.22;;;12.40;100.00
17383;BME280;8809;51.892;8.384;2023-11-19T03:00:22;99730.22;;;12.46;100.00
17383;BME280;8809;51.892;8.384;2023-11-19T03:02:55;99727.78;;;12.55;100.00
17383;BME280;8809;51.892;8.384;2023-11-19T03:05:26;99721.63;;;12.53;100.00
17383;BME280;8809;51.892;8.384;2023-11-19T03:07:56;99710.16;;;12.47;100.00
17383;BME280;8809;51.892;8.384;2023-11-19T03:10:24;99711.41;;;12.66;100.00
17383;BME280;8809;51.892;8.384;2023-11-19T03:12:51;99713.41;;;12.80;100.00
17383;BME280;8809;51.892;8.384;2023-11-19T03:15:18;99701.25;;;12.82;100.00
17383;BME280;8809;51.892;8.384;2023-11-19T03:17:46;99691.38;;;12.69;100.00
17383;BME280;8809;51.892;8.384;2023-11-19T03:20:15;99690.47;;;12.66;100.00
17383;BME280;8809;51.892;8.384;2023-11-19T03:22:42;99687.88;;;12.67;100.00
17383;BME280;8809;51.892;8.384;2023-11-19T03:25:10;99675.84;;;12.77;100.00
17383;BME280;8809;51.892;8.384;2023-11-19T03:27:39;99694.38;;;12.87;100.00
17383;BME280;8809;51.892;8.384;2023-11-19T03:30:08;99691.09;;;13.00;100.00
17383;BME280;8809;51.892;8.384;2023-11-19T03:32:37;99690.19;;;13.00;100.00
17383;BME280;8809;51.892;8.384;2023-11-19T03:35:05;99691.84;;;12.93;100.00
17383;BME280;8809;51.892;8.384;2023-11-19T03:37:35;99687.44;;;12.91;100.00
17383;BME280;8809;51.892;8.384;2023-11-19T03:40:03;99685.63;;;12.88;100.00
17383;BME280;8809;51.892;8.384;2023-11-19T03:42:31;99684.91;;;12.95;100.00
17383;BME280;8809;51.892;8.384;2023-11-19T03:44:58;99688.31;;;12.91;100.00
17383;BME280;8809;51.892;8.384;2023-11-19T03:47:25;99688.38;;;12.94;100.00
17383;BME280;8809;51.892;8.384;2023-11-19T03:49:53;99681.91;;;13.24;100.00
17383;BME280;8809;51.892;8.384;2023-11-19T03:52:20;99693.13;;;13.15;100.00
17383;BME280;8809;51.892;8.384;2023-11-19T03:54:48;99701.88;;;13.17;100.00
17383;BME280;8809;51.892;8.384;2023-11-19T03:57:15;99713.25;;;13.19;100.00
17383;BME280;8809;51.892;8.384;2023-11-19T03:59:42;99704.50;;;13.16;100.00
17383;BME280;8809;51.892;8.384;2023-11-19T04:02:09;99704.50;;;13.16;100.00
17383;BME280;8809;51.892;8.384;2023-11-19T04:04:36;99705.56;;;13.30;100.00
17383;BME280;8809;51.892;8.384;2023-11-19T04:07:04;99712.63;;;13.32;100.00
17383;BME280;8809;51.892;8.384;2023-11-19T04:09:33;99721.22;;;13.27;100.00
17383;BME280;8809;51.892;8.384;2023-11-19T04:12:01;99710.06;;;13.37;100.00
17383;BME280;8809;51.892;8.384;2023-11-19T04:14:28;99709.97;;;13.31;100.00
17383;BME280;8809;51.892;8.384;2023-11-19T04:16:55;99709.25;;;13.41;100.00
17383;BME280;8809;51.892;8.384;2023-11-19T04:19:22;99702.41;;;13.51;100.00
17383;BME280;8809;51.892;8.384;2023-11-19T04:21:50;99694.53;;;13.49;100.00
17383;BME280;8809;51.892;8.384;2023-11-19T04:24:18;99698.97;;;13.53;100.00
17383;BME280;8809;51.892;8.384;2023-11-19T04:26:45;99695.53;;;13.57;100.00
17383;BME280;8809;51.892;8.384;2023-11-19T04:29:15;99690.41;;;13.66;100.00
17383;BME280;8809;51.892;8.384;2023-11-19T04:31:46;99693.03;;;13.66;100.00
17383;BME280;8809;51.892;8.384;2023-11-19T04:34:13;99693.16;;;13.72;100.00
17383;BME280;8809;51.892;8.384;2023-11-19T04:36:40;99710.53;;;13.67;100.00
17383;BME280;8809;51.892;8.384;2023-11-19T04:39:07;99705.31;;;13.69;100.00
17383;BME280;8809;51.892;8.384;2023-11-19T04:41:47;99685.34;;;13.79;100.00
17383;BME280;8809;51.892;8.384;2023-11-19T04:44:16;99694.94;;;13.77;100.00
17383;BME280;8809;51.892;8.384;2023-11-19T04:46:43;99676.72;;;13.87;100.00
17383;BME280;8809;51.892;8.384;2023-11-19T04:49:11;99680.25;;;13.89;100.00
17383;BME280;8809;51.892;8.384;2023-11-19T04:51:40;99683.72;;;13.87;100.00
17383;BME280;8809;51.892;8.384;2023-11-19T04:54:07;99684.69;;;13.92;100.00
17383;BME280;8809;51.892;8.384;2023-11-19T04:56:35;99687.16;;;13.84;100.00
17383;BME280;8809;51.892;8.384;2023-11-19T04:59:03;99680.97;;;13.78;100.00
17383;BME280;8809;51.892;8.384;2023-11-19T05:01:32;99675.78;;;13.81;100.00
17383;BME280;8809;51.892;8.384;2023-11-19T05:04:00;99678.88;;;13.52;100.00
17383;BME280;8809;51.892;8.384;2023-11-19T05:06:27;99681.09;;;13.28;100.00
17383;BME280;8809;51.892;8.384;2023-11-19T05:08:56;99682.75;;;13.21;100.00
17383;BME280;8809;51.892;8.384;2023-11-19T05:11:23;99683.66;;;13.23;100.00
17383;BME280;8809;51.892;8.384;2023-11-19T05:13:50;99692.16;;;13.12;100.00
17383;BME280;8809;51.892;8.384;2023-11-19T05:16:17;99705.34;;;13.15;100.00
17383;BME280;8809;51.892;8.384;2023-11-19T05:18:46;99696.81;;;13.28;100.00
17383;BME280;8809;51.892;8.384;2023-11-19T05:21:13;99699.91;;;13.06;100.00
17383;BME280;8809;51.892;8.384;2023-11-19T05:23:40;99712.34;;;13.17;100.00
17383;BME280;8809;51.892;8.384;2023-11-19T05:26:07;99712.34;;;13.17;100.00
17383;BME280;8809;51.892;8.384;2023-11-19T05:28:38;99711.44;;;13.14;100.00
17383;BME280;8809;51.892;8.384;2023-11-19T05:31:05;99715.47;;;12.98;100.00
17383;BME280;8809;51.892;8.384;2023-11-19T05:33:33;99723.31;;;12.96;100.00
17383;BME280;8809;51.892;8.384;2023-11-19T05:36:01;99712.88;;;12.99;100.00
17383;BME280;8809;51.892;8.384;2023-11-19T05:38:29;99717.22;;;12.99;100.00
17383;BME280;8809;51.892;8.384;2023-11-19T05:40:56;99714.66;;;13.00;100.00
17383;BME280;8809;51.892;8.384;2023-11-19T05:43:23;99714.72;;;13.04;100.00
17383;BME280;8809;51.892;8.384;2023-11-19T05:45:50;99713.84;;;13.05;100.00
17383;BME280;8809;51.892;8.384;2023-11-19T05:48:17;99712.03;;;13.00;100.00
17383;BME280;8809;51.892;8.384;2023-11-19T05:50:47;99730.13;;;12.87;100.00
17383;BME280;8809;51.892;8.384;2023-11-19T05:53:16;99732.03;;;12.95;100.00
17383;BME280;8809;51.892;8.384;2023-11-19T05:55:43;99728.47;;;12.92;100.00
17383;BME280;8809;51.892;8.384;2023-11-19T05:58:14;99737.25;;;12.95;100.00
17383;BME280;8809;51.892;8.384;2023-11-19T06:00:42;99736.31;;;12.92;100.00
17383;BME280;8809;51.892;8.384;2023-11-19T06:03:09;99734.16;;;13.15;100.00
17383;BME280;8809;51.892;8.384;2023-11-19T06:05:36;99733.16;;;13.11;100.00
17383;BME280;8809;51.892;8.384;2023-11-19T06:08:03;99730.94;;;12.84;100.00
17383;BME280;8809;51.892;8.384;2023-11-19T06:10:33;99724.91;;;12.87;100.00
17383;BME280;8809;51.892;8.384;2023-11-19T06:13:01;99729.16;;;12.82;100.00
17383;BME280;8809;51.892;8.384;2023-11-19T06:15:32;99733.47;;;12.80;100.00
17383;BME280;8809;51.892;8.384;2023-11-19T06:17:59;99731.00;;;12.87;100.00
17383;BME280;8809;51.892;8.384;2023-11-19T06:20:27;99738.19;;;12.99;100.00
17383;BME280;8809;51.892;8.384;2023-11-19T06:22:55;99730.81;;;12.77;100.00
17383;BME280;8809;51.892;8.384;2023-11-19T06:25:22;99725.97;;;12.99;100.00
17383;BME280;8809;51.892;8.384;2023-11-19T06:27:51;99732.13;;;13.01;100.00
17383;BME280;8809;51.892;8.384;2023-11-19T06:30:18;99731.34;;;13.06;100.00
17383;BME280;8809;51.892;8.384;2023-11-19T06:32:46;99738.19;;;12.97;100.00
17383;BME280;8809;51.892;8.384;2023-11-19T06:35:13;99740.72;;;12.94;100.00
17383;BME280;8809;51.892;8.384;2023-11-19T06:37:40;99731.97;;;12.92;100.00
17383;BME280;8809;51.892;8.384;2023-11-19T06:40:09;99742.53;;;12.97;100.00
17383;BME280;8809;51.892;8.384;2023-11-19T06:42:37;99741.50;;;12.90;100.00
17383;BME280;8809;51.892;8.384;2023-11-19T06:45:07;99745.94;;;12.93;100.00
17383;BME280;8809;51.892;8.384;2023-11-19T06:47:35;99767.16;;;13.07;100.00
17383;BME280;8809;51.892;8.384;2023-11-19T06:50:02;99757.91;;;13.25;100.00
17383;BME280;8809;51.892;8.384;2023-11-19T06:52:31;99755.69;;;13.01;100.00
17383;BME280;8809;51.892;8.384;2023-11-19T06:54:58;99762.44;;;12.87;100.00
17383;BME280;8809;51.892;8.384;2023-11-19T06:57:26;99765.81;;;12.83;100.00
17383;BME280;8809;51.892;8.384;2023-11-19T06:59:52;99770.13;;;12.81;100.00
17383;BME280;8809;51.892;8.384;2023-11-19T07:02:21;99770.06;;;12.77;100.00
17383;BME280;8809;51.892;8.384;2023-11-19T07:04:48;99776.97;;;12.73;100.00
17383;BME280;8809;51.892;8.384;2023-11-19T07:07:15;99760.44;;;12.76;100.00
17383;BME280;8809;51.892;8.384;2023-11-19T07:09:42;99776.00;;;12.70;100.00
17383;BME280;8809;51.892;8.384;2023-11-19T07:12:09;99766.47;;;12.72;100.00
17383;BME280;8809;51.892;8.384;2023-11-19T07:14:36;99765.72;;;12.79;100.00
17383;BME280;8809;51.892;8.384;2023-11-19T07:17:04;99780.66;;;12.83;100.00
17383;BME280;8809;51.892;8.384;2023-11-19T07:19:33;99765.94;;;12.88;100.00
17383;BME280;8809;51.892;8.384;2023-11-19T07:22:01;99792.84;;;12.82;100.00
17383;BME280;8809;51.892;8.384;2023-11-19T07:24:28;99778.97;;;12.86;100.00
17383;BME280;8809;51.892;8.384;2023-11-19T07:26:55;99785.84;;;12.81;100.00
17383;BME280;8809;51.892;8.384;2023-11-19T07:29:22;99779.84;;;12.85;100.00
17383;BME280;8809;51.892;8.384;2023-11-19T07:31:49;99773.28;;;12.63;100.00
17383;BME280;8809;51.892;8.384;2023-11-19T07:34:16;99796.22;;;12.75;100.00
17383;BME280;8809;51.892;8.384;2023-11-19T07:36:45;99786.50;;;12.71;100.00
17383;BME280;8809;51.892;8.384;2023-11-19T07:39:12;99785.75;;;12.75;100.00
17383;BME280;8809;51.892;8.384;2023-11-19T07:41:39;99786.03;;;12.90;100.00
17383;BME280;8809;51.892;8.384;2023-11-19T07:44:06;99794.00;;;12.98;100.00
17383;BME280;8809;51.892;8.384;2023-11-19T07:46:33;99791.56;;;13.06;100.00
17383;BME280;8809;51.892;8.384;2023-11-19T07:49:00;99800.47;;;13.14;100.00
17383;BME280;8809;51.892;8.384;2023-11-19T07:51:28;99802.91;;;13.06;100.00
17383;BME280;8809;51.892;8.384;2023-11-19T07:53:57;99806.25;;;12.97;100.00
17383;BME280;8809;51.892;8.384;2023-11-19T07:56:25;99797.09;;;12.76;100.00
17383;BME280;8809;51.892;8.384;2023-11-19T07:58:51;99800.69;;;12.82;100.00
17383;BME280;8809;51.892;8.384;2023-11-19T08:01:18;99815.03;;;13.01;100.00
17383;BME280;8809;51.892;8.384;2023-11-19T08:03:45;99805.53;;;13.06;100.00
17383;BME280;8809;51.892;8.384;2023-11-19T08:06:12;99809.53;;;12.87;100.00
17383;BME280;8809;51.892;8.384;2023-11-19T08:08:39;99809.38;;;12.80;100.00
17383;BME280;8809;51.892;8.384;2023-11-19T08:11:08;99806.97;;;12.90;100.00
17383;BME280;8809;51.892;8.384;2023-11-19T08:13:35;99815.50;;;12.80;100.00
17383;BME280;8809;51.892;8.384;2023-11-19T08:16:03;99830.78;;;13.02;100.00
17383;BME280;8809;51.892;8.384;2023-11-19T08:18:30;99830.22;;;13.19;100.00
17383;BME280;8809;51.892;8.384;2023-11-19T08:20:57;99838.28;;;13.29;100.00
17383;BME280;8809;51.892;8.384;2023-11-19T08:23:26;99833.19;;;13.35;100.00
17383;BME280;8809;51.892;8.384;2023-11-19T08:25:54;99829.69;;;13.36;100.00
17383;BME280;8809;51.892;8.384;2023-11-19T08:28:23;99830.63;;;13.40;100.00
17383;BME280;8809;51.892;8.384;2023-11-19T08:30:50;99844.72;;;13.47;100.00
17383;BME280;8809;51.892;8.384;2023-11-19T08:33:17;99846.47;;;13.02;100.00
17383;BME280;8809;51.892;8.384;2023-11-19T08:35:44;99850.94;;;13.07;100.00
17383;BME280;8809;51.892;8.384;2023-11-19T08:38:12;99839.34;;;12.94;100.00
17383;BME280;8809;51.892;8.384;2023-11-19T08:40:40;99833.81;;;13.22;100.00
17383;BME280;8809;51.892;8.384;2023-11-19T08:43:07;99843.53;;;13.29;100.00
17383;BME280;8809;51.892;8.384;2023-11-19T08:45:35;99842.63;;;13.27;100.00
17383;BME280;8809;51.892;8.384;2023-11-19T08:48:02;99845.16;;;13.23;100.00
17383;BME280;8809;51.892;8.384;2023-11-19T08:50:30;99847.00;;;13.28;100.00
17383;BME280;8809;51.892;8.384;2023-11-19T08:52:57;99843.47;;;13.25;100.00
17383;BME280;8809;51.892;8.384;2023-11-19T08:55:24;99842.63;;;13.27;100.00
17383;BME280;8809;51.892;8.384;2023-11-19T08:57:51;99855.81;;;13.32;100.00
17383;BME280;8809;51.892;8.384;2023-11-19T09:00:18;99845.16;;;13.23;100.00
17383;BME280;8809;51.892;8.384;2023-11-19T09:02:48;99846.97;;;13.27;100.00
17383;BME280;8809;51.892;8.384;2023-11-19T09:05:15;99852.41;;;13.37;100.00
17383;BME280;8809;51.892;8.384;2023-11-19T09:07:42;99857.81;;;13.45;100.00
17383;BME280;8809;51.892;8.384;2023-11-19T09:10:09;99850.63;;;13.36;100.00
17383;BME280;8809;51.892;8.384;2023-11-19T09:12:37;99864.63;;;13.37;100.00
17383;BME280;8809;51.892;8.384;2023-11-19T09:15:05;99857.06;;;13.52;100.00
17383;BME280;8809;51.892;8.384;2023-11-19T09:17:33;99865.91;;;13.59;100.00
17383;BME280;8809;51.892;8.384;2023-11-19T09:20:02;99855.38;;;13.57;100.00
17383;BME280;8809;51.892;8.384;2023-11-19T09:22:29;99863.31;;;13.60;100.00
17383;BME280;8809;51.892;8.384;2023-11-19T09:24:56;99869.47;;;13.62;100.00
17383;BME280;8809;51.892;8.384;2023-11-19T09:27:26;99866.16;;;13.72;100.00
17383;BME280;8809;51.892;8.384;2023-11-19T09:29:53;99878.44;;;13.77;100.00
17383;BME280;8809;51.892;8.384;2023-11-19T09:32:23;99877.50;;;13.71;100.00
17383;BME280;8809;51.892;8.384;2023-11-19T09:34:50;99877.38;;;13.64;100.00
17383;BME280;8809;51.892;8.384;2023-11-19T09:37:18;99873.09;;;13.70;100.00
17383;BME280;8809;51.892;8.384;2023-11-19T09:39:45;99880.25;;;13.81;100.00
17383;BME280;8809;51.892;8.384;2023-11-19T09:42:12;99871.41;;;13.72;100.00
17383;BME280;8809;51.892;8.384;2023-11-19T09:44:42;99883.00;;;13.88;100.00
17383;BME280;8809;51.892;8.384;2023-11-19T09:47:10;99880.50;;;13.96;100.00
17383;BME280;8809;51.892;8.384;2023-11-19T09:49:38;99874.50;;;14.01;100.00
17383;BME280;8809;51.892;8.384;2023-11-19T09:52:06;99881.28;;;13.89;100.00
17383;BME280;8809;51.892;8.384;2023-11-19T09:54:34;99883.97;;;13.95;100.00
17383;BME280;8809;51.892;8.384;2023-11-19T09:57:02;99885.97;;;14.08;100.00
17383;BME280;8809;51.892;8.384;2023-11-19T09:59:30;99881.47;;;14.01;100.00
17383;BME280;8809;51.892;8.384;2023-11-19T10:01:57;99879.78;;;14.06;100.00
17383;BME280;8809;51.892;8.384;2023-11-19T10:04:25;99877.91;;;13.97;100.00
17383;BME280;8809;51.892;8.384;2023-11-19T10:06:56;99874.41;;;13.97;100.00
17383;BME280;8809;51.892;8.384;2023-11-19T10:09:23;99880.59;;;14.00;100.00
17383;BME280;8809;51.892;8.384;2023-11-19T10:11:52;99867.88;;;13.72;100.00
17383;BME280;8809;51.892;8.384;2023-11-19T10:14:23;99875.72;;;13.70;100.00
17383;BME280;8809;51.892;8.384;2023-11-19T10:16:50;99878.31;;;13.69;100.00
17383;BME280;8809;51.892;8.384;2023-11-19T10:19:20;99876.56;;;13.69;100.00
17383;BME280;8809;51.892;8.384;2023-11-19T10:21:47;99876.72;;;13.79;100.00
17383;BME280;8809;51.892;8.384;2023-11-19T10:24:14;99881.75;;;13.66;100.00
17383;BME280;8809;51.892;8.384;2023-11-19T10:26:41;99874.94;;;13.76;100.00
17383;BME280;8809;51.892;8.384;2023-11-19T10:29:12;99873.25;;;13.80;100.00
17383;BME280;8809;51.892;8.384;2023-11-19T10:31:55;99873.22;;;13.78;100.00
17383;BME280;8809;51.892;8.384;2023-11-19T10:34:25;99875.91;;;13.81;100.00
17383;BME280;8809;51.892;8.384;2023-11-19T10:36:52;99876.72;;;13.79;100.00
17383;BME280;8809;51.892;8.384;2023-11-19T10:39:20;99871.56;;;13.82;100.00
17383;BME280;8809;51.892;8.384;2023-11-19T10:41:49;99873.31;;;13.83;100.00
17383;BME280;8809;51.892;8.384;2023-11-19T10:44:33;99875.16;;;13.88;100.00
17383;BME280;8809;51.892;8.384;2023-11-19T10:47:01;99868.28;;;13.96;100.00
17383;BME280;8809;51.892;8.384;2023-11-19T10:49:32;99874.94;;;13.76;100.00
17383;BME280;8809;51.892;8.384;2023-11-19T10:52:01;99870.53;;;13.73;100.00
17383;BME280;8809;51.892;8.384;2023-11-19T10:54:30;99862.63;;;13.70;100.00
17383;BME280;8809;51.892;8.384;2023-11-19T10:56:59;99862.84;;;13.86;100.00
17383;BME280;8809;51.892;8.384;2023-11-19T10:59:28;99868.03;;;13.81;100.00
17383;BME280;8809;51.892;8.384;2023-11-19T11:02:00;99850.50;;;13.79;100.00
17383;BME280;8809;51.892;8.384;2023-11-19T11:04:33;99861.06;;;13.82;100.00
17383;BME280;8809;51.892;8.384;2023-11-19T11:07:08;99860.94;;;13.75;100.00
17383;BME280;8809;51.892;8.384;2023-11-19T11:09:36;99854.00;;;13.78;100.00
17383;BME280;8809;51.892;8.384;2023-11-19T11:12:06;99856.28;;;13.59;100.00
17383;BME280;8809;51.892;8.384;2023-11-19T11:14:37;99850.25;;;13.65;100.00
17383;BME280;8809;51.892;8.384;2023-11-19T11:17:08;99845.75;;;13.56;100.00
17383;BME280;8809;51.892;8.384;2023-11-19T11:19:36;99845.78;;;13.58;100.00
17383;BME280;8809;51.892;8.384;2023-11-19T11:22:04;99858.13;;;13.65;100.00
17383;BME280;8809;51.892;8.384;2023-11-19T11:27:46;99849.31;;;13.60;100.00
17383;BME280;8809;51.892;8.384;2023-11-19T11:30:31;99839.69;;;13.59;100.00
17383;BME280;8809;51.892;8.384;2023-11-19T11:33:14;99839.63;;;13.54;100.00
17383;BME280;8809;51.892;8.384;2023-11-19T11:35:52;99843.09;;;13.53;100.00
17383;BME280;8809;51.892;8.384;2023-11-19T11:38:22;99845.75;;;13.56;100.00
17383;BME280;8809;51.892;8.384;2023-11-19T11:41:18;99842.47;;;13.68;100.00
17383;BME280;8809;51.892;8.384;2023-11-19T11:43:48;99834.69;;;13.72;100.00
17383;BME280;8809;51.892;8.384;2023-11-19T11:49:28;99832.34;;;13.38;100.00
17383;BME280;8809;51.892;8.384;2023-11-19T11:52:02;99833.50;;;13.55;100.00
17383;BME280;8809;51.892;8.384;2023-11-19T11:54:30;99840.09;;;13.32;100.00
17383;BME280;8809;51.892;8.384;2023-11-19T11:57:06;99835.78;;;13.34;100.00
17383;BME280;8809;51.892;8.384;2023-11-19T11:59:40;99830.56;;;13.37;100.00
17383;BME280;8809;51.892;8.384;2023-11-19T12:02:10;99829.69;;;13.36;100.00
17383;BME280;8809;51.892;8.384;2023-11-19T12:04:39;99827.88;;;13.32;100.00
17383;BME280;8809;51.892;8.384;2023-11-19T12:07:12;99826.50;;;13.53;100.00
17383;BME280;8809;51.892;8.384;2023-11-19T12:09:40;99819.56;;;13.58;100.00
17383;BME280;8809;51.892;8.384;2023-11-19T12:12:17;99821.56;;;13.71;100.00
17383;BME280;8809;51.892;8.384;2023-11-19T12:15:07;99816.50;;;13.85;100.00
17383;BME280;8809;51.892;8.384;2023-11-19T12:17:56;99818.44;;;13.96;100.00
17383;BME280;8809;51.892;8.384;2023-11-19T12:20:26;99820.19;;;13.96;100.00
17383;BME280;8809;51.892;8.384;2023-11-19T12:22:57;99811.63;;;14.07;100.00
17383;BME280;8809;51.892;8.384;2023-11-19T12:25:24;99801.09;;;14.04;100.00
17383;BME280;8809;51.892;8.384;2023-11-19T12:27:52;99809.38;;;14.33;100.00
17383;BME280;8809;51.892;8.384;2023-11-19T12:30:21;99804.44;;;14.55;100.00
17383;BME280;8809;51.892;8.384;2023-11-19T12:32:49;99805.44;;;14.64;100.00
17383;BME280;8809;51.892;8.384;2023-11-19T12:35:16;99801.03;;;14.62;100.00
17383;BME280;8809;51.892;8.384;2023-11-19T12:37:47;99803.28;;;14.34;100.00
17383;BME280;8809;51.892;8.384;2023-11-19T12:40:16;99815.66;;;14.40;100.00
17383;BME280;8809;51.892;8.384;2023-11-19T12:42:43;99800.53;;;14.25;100.00
17383;BME280;8809;51.892;8.384;2023-11-19T12:45:11;99809.38;;;14.33;100.00
17383;BME280;8809;51.892;8.384;2023-11-19T12:47:39;99793.72;;;14.38;100.00
17383;BME280;8809;51.892;8.384;2023-11-19T12:50:07;99795.00;;;14.07;100.00
17383;BME280;8809;51.892;8.384;2023-11-19T12:52:35;99788.78;;;13.99;100.00
17383;BME280;8809;51.892;8.384;2023-11-19T12:55:05;99786.22;;;14.02;100.00
17383;BME280;8809;51.892;8.384;2023-11-19T12:57:50;99789.63;;;13.98;100.00
17383;BME280;8809;51.892;8.384;2023-11-19T13:00:21;99788.53;;;13.82;100.00
17383;BME280;8809;51.892;8.384;2023-11-19T13:02:50;99781.31;;;13.69;100.00
17383;BME280;8809;51.892;8.384;2023-11-19T13:05:25;99788.78;;;13.43;100.00
17383;BME280;8809;51.892;8.384;2023-11-19T13:08:00;99783.72;;;13.55;100.00
17383;BME280;8809;51.892;8.384;2023-11-19T13:10:29;99790.78;;;13.59;100.00
17383;BME280;8809;51.892;8.384;2023-11-19T13:13:01;99785.81;;;13.78;100.00